Barcelona, Spain

3:57 PM CEST on September 02, 2014 (GMT +0200)
Viladecans | Change Station
CLOSE
Current Station
Personal Weather Station
Location: Viladecans, Barcelona
Elevation: 130 ft
Nearby Weather Stations

Elev 130 ft 41.31 °N, 2.00 °E | Updated 1 second ago

Scattered Clouds
Scattered Clouds
78.9 °F
Feels Like 82 °F
N
6.9
Wind Variable Wind from South
Gusts 6.9 mph

Today
High -- | Low -- °F
--% Chance of Precip.
Yesterday
High -- | Low -- °F
Precip. -- in
7:18 AM 8:23 PM
First Quarter, 51% visible
Pressure 29.89 in
Visibility 6.2 miles
Clouds Few 1500 ft
Scattered Clouds 4000 ft
Heat Index 82 °F
Dew Point 72 °F
Humidity 79%
Rainfall 0.00 in
Snow Depth Not available.
UV 7 out of 12
Pollen Not available.
Air Quality Not available.
Flu Activity Not available.
METAR LEBL 021330Z 16008KT 130V190 9999 FEW015 SCT040 26/21 Q1012 NOSIG

More Conditions Fewer Conditions

Pressure 29.89 in
Visibility 6.2 miles
Clouds Few 1500 ft
Scattered Clouds 4000 ft
Heat Index 82 °F
Dew Point 72 °F
Humidity 79%
Rainfall 0.00 in
Snow Depth Not available.
UV 7 out of 12
Pollen Not available.
Air Quality Not available.
Flu Activity Not available.
METAR LEBL 021330Z 16008KT 130V190 9999 FEW015 SCT040 26/21 Q1012 NOSIG

More Conditions Fewer Conditions

10-Day Weather Forecast

Almanac

Astronomy

Sep. 02, 2014 Rise Set
Actual Time 7:18 AM CEST 8:23 PM CEST
Civil Twilight 6:50 AM CEST 8:51 PM CEST
Nautical Twilight 6:16 AM CEST 9:25 PM CEST
Astronomical Twilight 5:41 AM CEST 10:00 PM CEST
Moon 2:52 PM CEST 12:09 AM CEST
Length Of Visible Light 14h 00m
Length of Day
13h 04m
Tomorrow will be 2m 39s shorter.
First Quarter, 51% of the Moon is Illuminated
Today
First Quarter
Sep 8
Full
Sep 15
Last Quarter
Sep 24
New
Oct 1
First Quarter

Yesterday's Extremes

Country Highs Country Lows

Community

WunderPhotos

Upload Photos

1,749,656 photos uploaded!

Nearby

Snow Depth

Not available.

Earthquake Activity

City Distance Mag. Time & Date
No recent earthquake activity has been reported nearby.
Minimum magnitude displayed is 2.5.

Coastal Water Temperatures

Place Temperature
No Stations Reporting

Nearby Weather Stations